sensor_id;sensor_type;location;lat;lon;timestamp;P1;durP1;ratioP1;P2;durP2;ratioP2
5209;SDS011;2624;48.048;11.706;2023-08-20T00:02:23;3.47;;;3.20;;
5209;SDS011;2624;48.048;11.706;2023-08-20T00:07:28;4.07;;;3.67;;
5209;SDS011;2624;48.048;11.706;2023-08-20T00:12:32;10.50;;;3.30;;
5209;SDS011;2624;48.048;11.706;2023-08-20T00:17:34;4.87;;;3.07;;
5209;SDS011;2624;48.048;11.706;2023-08-20T00:22:37;6.10;;;3.40;;
5209;SDS011;2624;48.048;11.706;2023-08-20T00:27:41;4.23;;;3.60;;
5209;SDS011;2624;48.048;11.706;2023-08-20T00:32:43;3.23;;;2.93;;
5209;SDS011;2624;48.048;11.706;2023-08-20T00:37:45;4.50;;;2.90;;
5209;SDS011;2624;48.048;11.706;2023-08-20T00:42:48;3.90;;;3.60;;
5209;SDS011;2624;48.048;11.706;2023-08-20T00:47:50;11.10;;;4.20;;
5209;SDS011;2624;48.048;11.706;2023-08-20T00:52:52;4.33;;;3.60;;
5209;SDS011;2624;48.048;11.706;2023-08-20T00:57:55;6.23;;;3.20;;
5209;SDS011;2624;48.048;11.706;2023-08-20T01:02:57;7.40;;;3.47;;
5209;SDS011;2624;48.048;11.706;2023-08-20T01:08:02;4.23;;;3.10;;
5209;SDS011;2624;48.048;11.706;2023-08-20T01:13:22;7.70;;;3.43;;
5209;SDS011;2624;48.048;11.706;2023-08-20T01:18:24;4.73;;;3.00;;
5209;SDS011;2624;48.048;11.706;2023-08-20T01:28:53;7.80;;;4.20;;
5209;SDS011;2624;48.048;11.706;2023-08-20T01:33:56;3.47;;;3.27;;
5209;SDS011;2624;48.048;11.706;2023-08-20T01:38:58;6.67;;;3.20;;
5209;SDS011;2624;48.048;11.706;2023-08-20T01:44:01;3.40;;;3.10;;
5209;SDS011;2624;48.048;11.706;2023-08-20T01:49:03;7.83;;;3.30;;
5209;SDS011;2624;48.048;11.706;2023-08-20T01:54:05;6.10;;;3.77;;
5209;SDS011;2624;48.048;11.706;2023-08-20T01:59:08;6.17;;;3.30;;
5209;SDS011;2624;48.048;11.706;2023-08-20T02:04:11;4.60;;;2.90;;
5209;SDS011;2624;48.048;11.706;2023-08-20T02:09:13;4.70;;;3.10;;
5209;SDS011;2624;48.048;11.706;2023-08-20T02:14:16;8.77;;;3.20;;
5209;SDS011;2624;48.048;11.706;2023-08-20T02:19:18;3.50;;;3.30;;
5209;SDS011;2624;48.048;11.706;2023-08-20T02:24:20;5.20;;;3.60;;
5209;SDS011;2624;48.048;11.706;2023-08-20T02:29:23;3.20;;;3.00;;
5209;SDS011;2624;48.048;11.706;2023-08-20T02:34:25;4.30;;;3.23;;
5209;SDS011;2624;48.048;11.706;2023-08-20T02:39:27;5.77;;;3.40;;
5209;SDS011;2624;48.048;11.706;2023-08-20T02:44:30;7.70;;;3.50;;
5209;SDS011;2624;48.048;11.706;2023-08-20T02:49:32;4.17;;;3.10;;
5209;SDS011;2624;48.048;11.706;2023-08-20T02:54:33;10.23;;;3.37;;
5209;SDS011;2624;48.048;11.706;2023-08-20T02:59:37;3.97;;;3.20;;
5209;SDS011;2624;48.048;11.706;2023-08-20T03:04:38;3.60;;;3.30;;
5209;SDS011;2624;48.048;11.706;2023-08-20T03:09:40;3.87;;;3.00;;
5209;SDS011;2624;48.048;11.706;2023-08-20T03:14:43;3.03;;;2.80;;
5209;SDS011;2624;48.048;11.706;2023-08-20T03:19:53;7.63;;;3.10;;
5209;SDS011;2624;48.048;11.706;2023-08-20T03:24:56;4.60;;;3.10;;
5209;SDS011;2624;48.048;11.706;2023-08-20T03:29:59;11.20;;;3.10;;
5209;SDS011;2624;48.048;11.706;2023-08-20T03:35:01;6.17;;;3.00;;
5209;SDS011;2624;48.048;11.706;2023-08-20T03:40:03;5.60;;;2.30;;
5209;SDS011;2624;48.048;11.706;2023-08-20T03:45:07;3.63;;;2.73;;
5209;SDS011;2624;48.048;11.706;2023-08-20T03:50:09;5.50;;;3.73;;
5209;SDS011;2624;48.048;11.706;2023-08-20T03:55:11;10.30;;;3.37;;
5209;SDS011;2624;48.048;11.706;2023-08-20T04:00:15;9.40;;;3.33;;
5209;SDS011;2624;48.048;11.706;2023-08-20T04:05:17;5.13;;;3.20;;
5209;SDS011;2624;48.048;11.706;2023-08-20T04:10:18;6.80;;;3.57;;
5209;SDS011;2624;48.048;11.706;2023-08-20T04:15:21;4.10;;;3.50;;
5209;SDS011;2624;48.048;11.706;2023-08-20T04:20:23;4.77;;;2.60;;
5209;SDS011;2624;48.048;11.706;2023-08-20T04:25:25;6.03;;;3.03;;
5209;SDS011;2624;48.048;11.706;2023-08-20T04:30:28;4.60;;;3.10;;
5209;SDS011;2624;48.048;11.706;2023-08-20T04:35:30;2.63;;;2.53;;
5209;SDS011;2624;48.048;11.706;2023-08-20T04:40:32;5.20;;;2.77;;
5209;SDS011;2624;48.048;11.706;2023-08-20T04:45:35;11.40;;;3.50;;
5209;SDS011;2624;48.048;11.706;2023-08-20T04:50:37;5.50;;;3.20;;
5209;SDS011;2624;48.048;11.706;2023-08-20T04:55:38;5.70;;;4.03;;
5209;SDS011;2624;48.048;11.706;2023-08-20T05:00:41;3.80;;;3.17;;
5209;SDS011;2624;48.048;11.706;2023-08-20T05:05:47;6.60;;;3.43;;
5209;SDS011;2624;48.048;11.706;2023-08-20T05:10:50;4.83;;;2.93;;
5209;SDS011;2624;48.048;11.706;2023-08-20T05:15:53;3.63;;;3.30;;
5209;SDS011;2624;48.048;11.706;2023-08-20T05:20:55;7.00;;;3.80;;
5209;SDS011;2624;48.048;11.706;2023-08-20T05:25:57;7.00;;;3.37;;
5209;SDS011;2624;48.048;11.706;2023-08-20T05:31:00;7.17;;;3.47;;
5209;SDS011;2624;48.048;11.706;2023-08-20T05:36:02;5.47;;;3.30;;
5209;SDS011;2624;48.048;11.706;2023-08-20T05:41:03;3.27;;;2.70;;
5209;SDS011;2624;48.048;11.706;2023-08-20T05:46:07;5.23;;;3.00;;
5209;SDS011;2624;48.048;11.706;2023-08-20T05:51:08;4.97;;;2.60;;
5209;SDS011;2624;48.048;11.706;2023-08-20T05:56:10;4.80;;;3.13;;
5209;SDS011;2624;48.048;11.706;2023-08-20T06:01:13;5.00;;;3.23;;
5209;SDS011;2624;48.048;11.706;2023-08-20T06:06:15;4.37;;;2.73;;
5209;SDS011;2624;48.048;11.706;2023-08-20T06:11:17;4.57;;;3.00;;
5209;SDS011;2624;48.048;11.706;2023-08-20T06:16:20;5.20;;;3.60;;
5209;SDS011;2624;48.048;11.706;2023-08-20T06:21:21;5.00;;;3.80;;
5209;SDS011;2624;48.048;11.706;2023-08-20T06:26:23;5.80;;;4.07;;
5209;SDS011;2624;48.048;11.706;2023-08-20T06:31:26;13.50;;;4.00;;
5209;SDS011;2624;48.048;11.706;2023-08-20T06:36:28;12.90;;;3.63;;
5209;SDS011;2624;48.048;11.706;2023-08-20T06:41:30;9.37;;;3.73;;
5209;SDS011;2624;48.048;11.706;2023-08-20T06:46:33;9.53;;;3.20;;
5209;SDS011;2624;48.048;11.706;2023-08-20T06:51:35;3.60;;;2.77;;
5209;SDS011;2624;48.048;11.706;2023-08-20T06:56:36;6.93;;;3.13;;
5209;SDS011;2624;48.048;11.706;2023-08-20T07:01:39;9.67;;;3.20;;
5209;SDS011;2624;48.048;11.706;2023-08-20T07:06:41;10.07;;;3.30;;
5209;SDS011;2624;48.048;11.706;2023-08-20T07:11:44;5.33;;;2.93;;
5209;SDS011;2624;48.048;11.706;2023-08-20T07:16:47;3.97;;;3.63;;
5209;SDS011;2624;48.048;11.706;2023-08-20T07:21:48;4.10;;;3.50;;
5209;SDS011;2624;48.048;11.706;2023-08-20T07:26:50;5.40;;;3.00;;
5209;SDS011;2624;48.048;11.706;2023-08-20T07:31:53;6.47;;;3.47;;
5209;SDS011;2624;48.048;11.706;2023-08-20T07:36:55;3.93;;;3.00;;
5209;SDS011;2624;48.048;11.706;2023-08-20T07:41:57;3.80;;;3.33;;
5209;SDS011;2624;48.048;11.706;2023-08-20T07:47:00;3.17;;;2.87;;
5209;SDS011;2624;48.048;11.706;2023-08-20T07:52:02;3.70;;;3.40;;
5209;SDS011;2624;48.048;11.706;2023-08-20T07:57:04;4.60;;;3.73;;
5209;SDS011;2624;48.048;11.706;2023-08-20T08:02:07;7.10;;;2.80;;
5209;SDS011;2624;48.048;11.706;2023-08-20T08:07:09;5.37;;;3.00;;
5209;SDS011;2624;48.048;11.706;2023-08-20T08:12:12;3.23;;;2.93;;
5209;SDS011;2624;48.048;11.706;2023-08-20T08:17:15;6.20;;;3.80;;
5209;SDS011;2624;48.048;11.706;2023-08-20T08:22:17;9.83;;;3.10;;
5209;SDS011;2624;48.048;11.706;2023-08-20T08:27:19;7.50;;;2.47;;
5209;SDS011;2624;48.048;11.706;2023-08-20T08:32:22;4.20;;;3.10;;
5209;SDS011;2624;48.048;11.706;2023-08-20T08:37:23;4.73;;;3.07;;
5209;SDS011;2624;48.048;11.706;2023-08-20T08:42:25;13.10;;;3.60;;
5209;SDS011;2624;48.048;11.706;2023-08-20T08:47:28;3.33;;;3.00;;
5209;SDS011;2624;48.048;11.706;2023-08-20T08:52:30;3.93;;;3.40;;
5209;SDS011;2624;48.048;11.706;2023-08-20T08:57:33;4.53;;;3.37;;
5209;SDS011;2624;48.048;11.706;2023-08-20T09:02:36;4.10;;;3.30;;
5209;SDS011;2624;48.048;11.706;2023-08-20T09:07:40;13.23;;;2.93;;
5209;SDS011;2624;48.048;11.706;2023-08-20T09:12:43;3.53;;;2.70;;
5209;SDS011;2624;48.048;11.706;2023-08-20T09:17:46;2.97;;;2.67;;
5209;SDS011;2624;48.048;11.706;2023-08-20T09:22:48;4.27;;;2.93;;
5209;SDS011;2624;48.048;11.706;2023-08-20T09:27:50;3.47;;;3.20;;
5209;SDS011;2624;48.048;11.706;2023-08-20T09:33:06;12.83;;;2.63;;
5209;SDS011;2624;48.048;11.706;2023-08-20T09:38:11;4.80;;;3.07;;
5209;SDS011;2624;48.048;11.706;2023-08-20T09:43:12;3.43;;;3.13;;
5209;SDS011;2624;48.048;11.706;2023-08-20T09:48:18;2.93;;;2.73;;
5209;SDS011;2624;48.048;11.706;2023-08-20T09:53:22;4.50;;;3.30;;
5209;SDS011;2624;48.048;11.706;2023-08-20T09:58:27;4.70;;;3.60;;
5209;SDS011;2624;48.048;11.706;2023-08-20T10:03:31;4.53;;;2.90;;
5209;SDS011;2624;48.048;11.706;2023-08-20T10:08:33;7.70;;;3.63;;
5209;SDS011;2624;48.048;11.706;2023-08-20T10:13:36;3.47;;;3.13;;
5209;SDS011;2624;48.048;11.706;2023-08-20T10:18:39;2.50;;;2.40;;
5209;SDS011;2624;48.048;11.706;2023-08-20T10:23:41;3.10;;;2.90;;
5209;SDS011;2624;48.048;11.706;2023-08-20T10:28:49;6.90;;;5.00;;
5209;SDS011;2624;48.048;11.706;2023-08-20T10:33:54;4.43;;;2.93;;
5209;SDS011;2624;48.048;11.706;2023-08-20T10:38:57;3.73;;;2.60;;
5209;SDS011;2624;48.048;11.706;2023-08-20T10:44:04;3.70;;;2.53;;
5209;SDS011;2624;48.048;11.706;2023-08-20T10:49:07;3.70;;;3.20;;
5209;SDS011;2624;48.048;11.706;2023-08-20T10:54:09;3.30;;;2.97;;
5209;SDS011;2624;48.048;11.706;2023-08-20T10:59:16;4.20;;;2.47;;
5209;SDS011;2624;48.048;11.706;2023-08-20T11:04:21;4.63;;;2.60;;
5209;SDS011;2624;48.048;11.706;2023-08-20T11:09:24;3.63;;;3.13;;
5209;SDS011;2624;48.048;11.706;2023-08-20T11:14:26;9.30;;;3.03;;
5209;SDS011;2624;48.048;11.706;2023-08-20T11:19:30;3.90;;;2.60;;
5209;SDS011;2624;48.048;11.706;2023-08-20T11:24:31;3.77;;;3.07;;
5209;SDS011;2624;48.048;11.706;2023-08-20T11:29:36;4.50;;;2.40;;
5209;SDS011;2624;48.048;11.706;2023-08-20T11:34:39;4.03;;;2.60;;
5209;SDS011;2624;48.048;11.706;2023-08-20T11:39:41;4.73;;;3.33;;
5209;SDS011;2624;48.048;11.706;2023-08-20T11:44:43;3.20;;;3.00;;
5209;SDS011;2624;48.048;11.706;2023-08-20T11:49:47;3.57;;;3.27;;
5209;SDS011;2624;48.048;11.706;2023-08-20T11:55:02;3.40;;;3.10;;
5209;SDS011;2624;48.048;11.706;2023-08-20T12:00:05;5.07;;;2.40;;
5209;SDS011;2624;48.048;11.706;2023-08-20T12:05:11;3.47;;;2.63;;
5209;SDS011;2624;48.048;11.706;2023-08-20T12:10:19;8.33;;;3.40;;
5209;SDS011;2624;48.048;11.706;2023-08-20T12:15:22;2.53;;;2.40;;
5209;SDS011;2624;48.048;11.706;2023-08-20T12:20:26;2.20;;;2.10;;
5209;SDS011;2624;48.048;11.706;2023-08-20T12:25:29;3.90;;;2.50;;
5209;SDS011;2624;48.048;11.706;2023-08-20T12:30:33;4.77;;;2.97;;
5209;SDS011;2624;48.048;11.706;2023-08-20T12:35:37;5.57;;;3.00;;
5209;SDS011;2624;48.048;11.706;2023-08-20T12:40:39;2.87;;;2.60;;
5209;SDS011;2624;48.048;11.706;2023-08-20T12:45:40;3.47;;;2.60;;
5209;SDS011;2624;48.048;11.706;2023-08-20T12:50:44;2.73;;;2.40;;
5209;SDS011;2624;48.048;11.706;2023-08-20T12:55:46;3.20;;;2.90;;
5209;SDS011;2624;48.048;11.706;2023-08-20T13:00:47;2.77;;;2.50;;
5209;SDS011;2624;48.048;11.706;2023-08-20T13:05:52;2.73;;;2.60;;
5209;SDS011;2624;48.048;11.706;2023-08-20T13:10:55;2.80;;;2.60;;
5209;SDS011;2624;48.048;11.706;2023-08-20T13:15:58;3.00;;;2.70;;
5209;SDS011;2624;48.048;11.706;2023-08-20T13:21:02;4.50;;;2.73;;
5209;SDS011;2624;48.048;11.706;2023-08-20T13:26:04;6.57;;;3.27;;
5209;SDS011;2624;48.048;11.706;2023-08-20T13:31:06;8.80;;;2.87;;
5209;SDS011;2624;48.048;11.706;2023-08-20T13:36:09;7.47;;;3.40;;
5209;SDS011;2624;48.048;11.706;2023-08-20T13:41:11;4.37;;;2.83;;
5209;SDS011;2624;48.048;11.706;2023-08-20T13:46:12;4.17;;;3.13;;
5209;SDS011;2624;48.048;11.706;2023-08-20T13:51:15;3.20;;;3.07;;
5209;SDS011;2624;48.048;11.706;2023-08-20T13:56:17;3.90;;;2.80;;
5209;SDS011;2624;48.048;11.706;2023-08-20T14:01:19;4.63;;;3.03;;
5209;SDS011;2624;48.048;11.706;2023-08-20T14:06:22;7.17;;;2.80;;
5209;SDS011;2624;48.048;11.706;2023-08-20T14:11:24;3.23;;;3.03;;
5209;SDS011;2624;48.048;11.706;2023-08-20T14:16:25;3.17;;;2.97;;
5209;SDS011;2624;48.048;11.706;2023-08-20T14:21:29;3.70;;;2.57;;
5209;SDS011;2624;48.048;11.706;2023-08-20T14:26:31;6.13;;;3.23;;
5209;SDS011;2624;48.048;11.706;2023-08-20T14:31:32;2.77;;;2.57;;
5209;SDS011;2624;48.048;11.706;2023-08-20T14:36:35;5.93;;;2.83;;
5209;SDS011;2624;48.048;11.706;2023-08-20T14:41:37;3.83;;;3.33;;
5209;SDS011;2624;48.048;11.706;2023-08-20T14:46:39;3.30;;;2.90;;
5209;SDS011;2624;48.048;11.706;2023-08-20T14:51:43;2.90;;;2.70;;
5209;SDS011;2624;48.048;11.706;2023-08-20T14:56:44;7.03;;;3.50;;
5209;SDS011;2624;48.048;11.706;2023-08-20T15:01:46;4.40;;;2.60;;
5209;SDS011;2624;48.048;11.706;2023-08-20T15:06:49;5.40;;;3.17;;
5209;SDS011;2624;48.048;11.706;2023-08-20T15:11:51;3.13;;;2.93;;
5209;SDS011;2624;48.048;11.706;2023-08-20T15:16:53;3.60;;;3.40;;
5209;SDS011;2624;48.048;11.706;2023-08-20T15:21:56;3.30;;;3.10;;
5209;SDS011;2624;48.048;11.706;2023-08-20T15:26:58;3.03;;;2.90;;
5209;SDS011;2624;48.048;11.706;2023-08-20T15:32:00;11.80;;;3.93;;
5209;SDS011;2624;48.048;11.706;2023-08-20T15:37:03;3.43;;;3.23;;
5209;SDS011;2624;48.048;11.706;2023-08-20T15:42:05;3.20;;;2.90;;
5209;SDS011;2624;48.048;11.706;2023-08-20T15:47:07;3.50;;;3.30;;
5209;SDS011;2624;48.048;11.706;2023-08-20T15:52:10;7.33;;;3.43;;
5209;SDS011;2624;48.048;11.706;2023-08-20T15:57:12;3.97;;;2.77;;
5209;SDS011;2624;48.048;11.706;2023-08-20T16:02:14;2.90;;;2.63;;
5209;SDS011;2624;48.048;11.706;2023-08-20T16:07:18;3.37;;;3.17;;
5209;SDS011;2624;48.048;11.706;2023-08-20T16:12:19;4.23;;;3.93;;
5209;SDS011;2624;48.048;11.706;2023-08-20T16:17:21;4.10;;;3.80;;
5209;SDS011;2624;48.048;11.706;2023-08-20T16:22:24;3.67;;;3.47;;
5209;SDS011;2624;48.048;11.706;2023-08-20T16:27:26;3.30;;;3.10;;
5209;SDS011;2624;48.048;11.706;2023-08-20T16:32:28;4.50;;;4.20;;
5209;SDS011;2624;48.048;11.706;2023-08-20T16:37:31;4.23;;;3.77;;
5209;SDS011;2624;48.048;11.706;2023-08-20T16:42:33;3.33;;;2.87;;
5209;SDS011;2624;48.048;11.706;2023-08-20T16:47:35;3.80;;;3.70;;
5209;SDS011;2624;48.048;11.706;2023-08-20T16:52:38;7.73;;;3.67;;
5209;SDS011;2624;48.048;11.706;2023-08-20T16:57:40;4.90;;;4.03;;
5209;SDS011;2624;48.048;11.706;2023-08-20T17:02:42;3.93;;;3.73;;
5209;SDS011;2624;48.048;11.706;2023-08-20T17:07:45;5.30;;;3.60;;
5209;SDS011;2624;48.048;11.706;2023-08-20T17:12:47;7.77;;;3.37;;
5209;SDS011;2624;48.048;11.706;2023-08-20T17:17:49;3.43;;;3.23;;
5209;SDS011;2624;48.048;11.706;2023-08-20T17:22:52;4.10;;;3.80;;
5209;SDS011;2624;48.048;11.706;2023-08-20T17:27:54;3.57;;;3.40;;
5209;SDS011;2624;48.048;11.706;2023-08-20T17:32:55;4.00;;;3.70;;
5209;SDS011;2624;48.048;11.706;2023-08-20T17:37:58;3.60;;;3.30;;
5209;SDS011;2624;48.048;11.706;2023-08-20T17:43:00;6.90;;;4.00;;
5209;SDS011;2624;48.048;11.706;2023-08-20T17:48:02;3.43;;;3.13;;
5209;SDS011;2624;48.048;11.706;2023-08-20T17:53:05;4.20;;;3.77;;
5209;SDS011;2624;48.048;11.706;2023-08-20T17:58:09;3.50;;;3.20;;
5209;SDS011;2624;48.048;11.706;2023-08-20T18:03:10;5.53;;;3.70;;
5209;SDS011;2624;48.048;11.706;2023-08-20T18:08:15;3.63;;;3.30;;
5209;SDS011;2624;48.048;11.706;2023-08-20T18:13:17;5.13;;;3.83;;
5209;SDS011;2624;48.048;11.706;2023-08-20T18:18:18;4.07;;;3.57;;
5209;SDS011;2624;48.048;11.706;2023-08-20T18:23:22;5.20;;;3.43;;
5209;SDS011;2624;48.048;11.706;2023-08-20T18:28:23;4.30;;;4.00;;
5209;SDS011;2624;48.048;11.706;2023-08-20T18:33:25;6.43;;;4.30;;
5209;SDS011;2624;48.048;11.706;2023-08-20T18:38:38;12.33;;;4.00;;
5209;SDS011;2624;48.048;11.706;2023-08-20T18:43:41;5.13;;;4.13;;
5209;SDS011;2624;48.048;11.706;2023-08-20T18:48:42;8.17;;;3.90;;
5209;SDS011;2624;48.048;11.706;2023-08-20T18:53:45;8.30;;;4.17;;
5209;SDS011;2624;48.048;11.706;2023-08-20T18:58:47;6.53;;;4.80;;
5209;SDS011;2624;48.048;11.706;2023-08-20T19:03:49;4.23;;;3.83;;
5209;SDS011;2624;48.048;11.706;2023-08-20T19:08:54;4.50;;;4.10;;
5209;SDS011;2624;48.048;11.706;2023-08-20T19:13:55;4.77;;;4.37;;
5209;SDS011;2624;48.048;11.706;2023-08-20T19:18:57;9.90;;;4.30;;
5209;SDS011;2624;48.048;11.706;2023-08-20T19:24:00;4.83;;;4.33;;
5209;SDS011;2624;48.048;11.706;2023-08-20T19:29:04;4.70;;;4.37;;
5209;SDS011;2624;48.048;11.706;2023-08-20T19:34:05;5.53;;;5.03;;
5209;SDS011;2624;48.048;11.706;2023-08-20T19:39:09;4.80;;;4.50;;
5209;SDS011;2624;48.048;11.706;2023-08-20T19:44:11;4.10;;;3.80;;
5209;SDS011;2624;48.048;11.706;2023-08-20T19:49:12;12.63;;;7.17;;
5209;SDS011;2624;48.048;11.706;2023-08-20T19:54:15;8.43;;;6.70;;
5209;SDS011;2624;48.048;11.706;2023-08-20T19:59:18;9.30;;;6.00;;
5209;SDS011;2624;48.048;11.706;2023-08-20T20:04:20;7.00;;;4.67;;
5209;SDS011;2624;48.048;11.706;2023-08-20T20:09:23;5.03;;;4.63;;
5209;SDS011;2624;48.048;11.706;2023-08-20T20:14:25;14.40;;;4.87;;
5209;SDS011;2624;48.048;11.706;2023-08-20T20:19:27;5.47;;;4.23;;
5209;SDS011;2624;48.048;11.706;2023-08-20T20:24:30;5.40;;;4.90;;
5209;SDS011;2624;48.048;11.706;2023-08-20T20:29:32;5.73;;;5.17;;
5209;SDS011;2624;48.048;11.706;2023-08-20T20:34:34;5.73;;;5.23;;
5209;SDS011;2624;48.048;11.706;2023-08-20T20:39:37;9.50;;;5.67;;
5209;SDS011;2624;48.048;11.706;2023-08-20T20:44:39;7.73;;;5.43;;
5209;SDS011;2624;48.048;11.706;2023-08-20T20:49:41;5.70;;;5.30;;
5209;SDS011;2624;48.048;11.706;2023-08-20T20:54:44;5.37;;;4.80;;
5209;SDS011;2624;48.048;11.706;2023-08-20T20:59:46;5.60;;;5.07;;
5209;SDS011;2624;48.048;11.706;2023-08-20T21:04:48;9.40;;;5.60;;
5209;SDS011;2624;48.048;11.706;2023-08-20T21:09:51;6.50;;;5.03;;
5209;SDS011;2624;48.048;11.706;2023-08-20T21:14:53;6.53;;;5.83;;
5209;SDS011;2624;48.048;11.706;2023-08-20T21:19:56;10.50;;;6.10;;
5209;SDS011;2624;48.048;11.706;2023-08-20T21:24:59;7.67;;;5.50;;
5209;SDS011;2624;48.048;11.706;2023-08-20T21:30:00;6.37;;;5.70;;
5209;SDS011;2624;48.048;11.706;2023-08-20T21:35:02;7.00;;;5.50;;
5209;SDS011;2624;48.048;11.706;2023-08-20T21:40:07;7.93;;;5.43;;
5209;SDS011;2624;48.048;11.706;2023-08-20T21:45:09;7.77;;;5.97;;
5209;SDS011;2624;48.048;11.706;2023-08-20T21:50:11;7.53;;;5.53;;
5209;SDS011;2624;48.048;11.706;2023-08-20T21:55:16;7.10;;;6.40;;
5209;SDS011;2624;48.048;11.706;2023-08-20T22:00:18;7.60;;;5.80;;
5209;SDS011;2624;48.048;11.706;2023-08-20T22:05:20;6.57;;;5.40;;
5209;SDS011;2624;48.048;11.706;2023-08-20T22:10:25;5.90;;;5.37;;
5209;SDS011;2624;48.048;11.706;2023-08-20T22:15:27;5.90;;;5.40;;
5209;SDS011;2624;48.048;11.706;2023-08-20T22:20:29;7.13;;;5.73;;
5209;SDS011;2624;48.048;11.706;2023-08-20T22:25:32;7.73;;;5.60;;
5209;SDS011;2624;48.048;11.706;2023-08-20T22:30:34;6.80;;;6.23;;
5209;SDS011;2624;48.048;11.706;2023-08-20T22:35:37;8.00;;;5.60;;
5209;SDS011;2624;48.048;11.706;2023-08-20T22:40:40;5.80;;;5.17;;
5209;SDS011;2624;48.048;11.706;2023-08-20T22:45:43;10.97;;;5.87;;
5209;SDS011;2624;48.048;11.706;2023-08-20T22:50:45;20.50;;;6.40;;
5209;SDS011;2624;48.048;11.706;2023-08-20T22:55:49;6.40;;;5.80;;
5209;SDS011;2624;48.048;11.706;2023-08-20T23:00:51;5.73;;;5.20;;
5209;SDS011;2624;48.048;11.706;2023-08-20T23:05:54;6.27;;;5.67;;
5209;SDS011;2624;48.048;11.706;2023-08-20T23:10:57;7.60;;;5.77;;
5209;SDS011;2624;48.048;11.706;2023-08-20T23:15:59;6.03;;;5.00;;
5209;SDS011;2624;48.048;11.706;2023-08-20T23:21:01;7.20;;;5.77;;
5209;SDS011;2624;48.048;11.706;2023-08-20T23:26:05;6.80;;;5.67;;
5209;SDS011;2624;48.048;11.706;2023-08-20T23:31:07;6.27;;;5.67;;
5209;SDS011;2624;48.048;11.706;2023-08-20T23:36:09;7.90;;;6.00;;
5209;SDS011;2624;48.048;11.706;2023-08-20T23:41:12;7.50;;;6.07;;
5209;SDS011;2624;48.048;11.706;2023-08-20T23:46:14;7.27;;;5.90;;
5209;SDS011;2624;48.048;11.706;2023-08-20T23:51:16;5.90;;;5.40;;
5209;SDS011;2624;48.048;11.706;2023-08-20T23:56:19;6.30;;;5.53;;
